createdAt,value
2022-08-04T00:01:27.142Z,100670.97
2022-08-04T00:04:02.290Z,100678.53
2022-08-04T00:06:41.032Z,100668.47
2022-08-04T00:09:13.611Z,100675.47
2022-08-04T00:11:44.827Z,100668.94
2022-08-04T00:14:15.168Z,100672.22
2022-08-04T00:16:43.696Z,100672.63
2022-08-04T00:19:16.414Z,100667.34
2022-08-04T00:21:47.482Z,100665.69
2022-08-04T00:24:15.938Z,100662.84
2022-08-04T00:26:43.917Z,100657.50
2022-08-04T00:29:10.418Z,100656.28
2022-08-04T00:31:56.982Z,100660.81
2022-08-04T00:34:28.888Z,100665.16
2022-08-04T00:36:56.321Z,100665.41
2022-08-04T00:39:23.000Z,100661.91
2022-08-04T00:42:19.624Z,100660.34
2022-08-04T00:45:25.509Z,100660.75
2022-08-04T00:48:00.155Z,100657.81
2022-08-04T00:50:52.115Z,100661.84
2022-08-04T00:53:31.260Z,100652.16
2022-08-04T00:56:21.959Z,100660.59
2022-08-04T00:59:03.426Z,100655.28
2022-08-04T01:01:47.352Z,100646.25
2022-08-04T01:04:34.385Z,100657.22
2022-08-04T01:07:49.389Z,100657.22
2022-08-04T01:10:24.554Z,100659.47
2022-08-04T01:13:15.973Z,100659.56
2022-08-04T01:15:59.736Z,100656.25
2022-08-04T01:18:38.839Z,100657.94
2022-08-04T01:21:30.841Z,100658.16
2022-08-04T01:24:10.515Z,100663.22
2022-08-04T01:26:57.586Z,100656.72
2022-08-04T01:29:32.991Z,100655.75
2022-08-04T01:32:32.812Z,100657.69
2022-08-04T01:35:03.870Z,100654.66
2022-08-04T01:37:48.037Z,100659.38
2022-08-04T01:40:16.505Z,100652.66
2022-08-04T01:42:44.191Z,100658.84
2022-08-04T01:45:13.111Z,100658.50
2022-08-04T01:47:50.829Z,100650.88
2022-08-04T01:50:17.456Z,100653.38
2022-08-04T01:52:50.351Z,100656.72
2022-08-04T01:55:18.045Z,100652.19
2022-08-04T01:57:52.212Z,100644.72
2022-08-04T02:00:23.498Z,100648.47
2022-08-04T02:02:50.849Z,100647.56
2022-08-04T02:05:19.517Z,100637.50
2022-08-04T02:08:04.182Z,100645.56
2022-08-04T02:10:41.675Z,100642.19
2022-08-04T02:13:24.625Z,100640.25
2022-08-04T02:15:58.507Z,100646.63
2022-08-04T02:18:30.545Z,100642.09
2022-08-04T02:21:01.999Z,100636.75
2022-08-04T02:23:37.205Z,100633.44
2022-08-04T02:26:06.351Z,100632.34
2022-08-04T02:29:00.848Z,100633.75
2022-08-04T02:31:47.851Z,100631.50
2022-08-04T02:34:52.589Z,100633.78
2022-08-04T02:37:21.512Z,100621.25
2022-08-04T02:39:52.676Z,100627.38
2022-08-04T02:42:19.703Z,100622.16
2022-08-04T02:44:52.192Z,100618.25
2022-08-04T02:47:21.372Z,100620.25
2022-08-04T02:49:51.186Z,100619.69
2022-08-04T02:52:18.748Z,100614.41
2022-08-04T02:54:46.955Z,100615.81
2022-08-04T02:57:14.298Z,100622.72
2022-08-04T03:00:07.471Z,100616.13
2022-08-04T03:02:37.000Z,100611.16
2022-08-04T03:05:09.909Z,100610.00
2022-08-04T03:08:24.688Z,100610.56
2022-08-04T03:11:16.012Z,100605.81
2022-08-04T03:14:13.296Z,100599.00
2022-08-04T03:16:57.889Z,100607.63
2022-08-04T03:19:49.209Z,100605.94
2022-08-04T03:22:41.958Z,100600.22
2022-08-04T03:25:55.816Z,100605.56
2022-08-04T03:28:57.263Z,100599.28
2022-08-04T03:31:51.663Z,100608.75
2022-08-04T03:34:55.559Z,100602.97
2022-08-04T03:37:51.877Z,100601.19
2022-08-04T03:40:48.515Z,100594.72
2022-08-04T03:43:59.212Z,100599.47
2022-08-04T03:46:46.486Z,100604.63
2022-08-04T03:49:37.543Z,100602.88
2022-08-04T03:52:25.995Z,100603.34
2022-08-04T03:55:11.008Z,100601.41
2022-08-04T03:58:09.245Z,100609.84
2022-08-04T04:01:04.892Z,100606.78
2022-08-04T04:04:09.403Z,100600.47
2022-08-04T04:06:54.456Z,100611.72
2022-08-04T04:09:30.794Z,100599.56
2022-08-04T04:12:34.237Z,100601.63
2022-08-04T04:15:08.831Z,100603.53
2022-08-04T04:18:10.961Z,100605.28
2022-08-04T04:20:58.664Z,100608.91
2022-08-04T04:23:46.365Z,100602.25
2022-08-04T04:26:32.275Z,100602.31
2022-08-04T04:29:27.208Z,100611.78
2022-08-04T04:32:05.094Z,100612.00
2022-08-04T04:34:44.196Z,100608.81
2022-08-04T04:37:37.172Z,100607.88
2022-08-04T04:40:37.993Z,100608.50
2022-08-04T04:43:20.311Z,100605.69
2022-08-04T04:46:00.058Z,100607.28
2022-08-04T04:48:44.854Z,100598.03
2022-08-04T04:51:37.335Z,100601.47
2022-08-04T04:54:18.822Z,100605.56
2022-08-04T04:57:06.735Z,100597.28
2022-08-04T04:59:36.827Z,100605.94
2022-08-04T05:02:28.280Z,100607.03
2022-08-04T05:05:06.385Z,100605.28
2022-08-04T05:07:48.069Z,100600.13
2022-08-04T05:10:46.284Z,100601.66
2022-08-04T05:14:35.208Z,100603.44
2022-08-04T05:16:39.493Z,100598.72
2022-08-04T05:19:19.276Z,100603.69
2022-08-04T05:21:49.672Z,100600.38
2022-08-04T05:24:19.817Z,100604.91
2022-08-04T05:26:52.116Z,100599.59
2022-08-04T05:29:30.969Z,100597.53
2022-08-04T05:32:04.525Z,100594.78
2022-08-04T05:34:36.439Z,100590.72
2022-08-04T05:37:09.089Z,100599.22
2022-08-04T05:40:02.468Z,100600.13
2022-08-04T05:42:30.149Z,100591.69
2022-08-04T05:44:58.439Z,100592.16
2022-08-04T05:47:25.757Z,100588.91
2022-08-04T05:50:02.406Z,100584.03
2022-08-04T05:52:31.020Z,100588.16
2022-08-04T05:54:58.958Z,100584.88
2022-08-04T05:57:25.994Z,100583.34
2022-08-04T05:59:55.452Z,100576.44
2022-08-04T06:02:25.224Z,100583.75
2022-08-04T06:04:52.795Z,100573.19
2022-08-04T06:07:19.459Z,100580.88
2022-08-04T06:09:46.027Z,100583.34
2022-08-04T06:12:21.988Z,100581.69
2022-08-04T06:14:52.671Z,100583.34
2022-08-04T06:19:56.399Z,100574.78
2022-08-04T06:20:23.004Z,100576.81
2022-08-04T06:22:55.427Z,100573.88
2022-08-04T06:25:24.722Z,100569.91
2022-08-04T06:27:52.678Z,100576.78
2022-08-04T06:30:19.188Z,100573.06
2022-08-04T06:32:48.372Z,100571.75
2022-08-04T06:35:17.248Z,100566.06
2022-08-04T06:37:45.414Z,100556.72
2022-08-04T06:40:30.919Z,100560.81
2022-08-04T06:43:03.714Z,100562.47
2022-08-04T06:45:31.613Z,100560.56
2022-08-04T06:47:59.854Z,100549.38
2022-08-04T06:51:32.926Z,100555.63
2022-08-04T06:53:14.788Z,100554.47
2022-08-04T06:55:43.163Z,100542.16
2022-08-04T06:58:10.445Z,100551.53
2022-08-04T07:00:39.053Z,100544.94
2022-08-04T07:03:05.749Z,100544.63
2022-08-04T07:05:32.805Z,100541.38
2022-08-04T07:07:59.737Z,100544.88
2022-08-04T07:10:30.782Z,100545.88
2022-08-04T07:12:58.850Z,100540.38
2022-08-04T07:15:25.883Z,100542.84
2022-08-04T07:17:54.390Z,100541.03
2022-08-04T07:20:34.068Z,100540.81
2022-08-04T07:23:07.205Z,100538.19
2022-08-04T07:26:00.537Z,100535.25
2022-08-04T07:28:24.051Z,100538.13
2022-08-04T07:30:50.632Z,100535.44
2022-08-04T07:33:18.534Z,100528.13
2022-08-04T07:36:10.614Z,100523.53
2022-08-04T07:38:48.251Z,100539.78
2022-08-04T07:41:40.660Z,100531.03
2022-08-04T07:44:08.098Z,100533.09
2022-08-04T07:46:35.975Z,100522.78
2022-08-04T07:49:03.044Z,100517.34
2022-08-04T07:51:30.831Z,100515.66
2022-08-04T07:53:58.164Z,100520.25
2022-08-04T07:56:26.624Z,100519.75
2022-08-04T07:58:53.131Z,100515.91
2022-08-04T08:01:19.712Z,100524.31
2022-08-04T08:03:47.791Z,100504.88
2022-08-04T08:06:30.755Z,100510.34
2022-08-04T08:09:00.318Z,100504.69
2022-08-04T08:12:33.973Z,100503.66
2022-08-04T08:14:17.158Z,100504.09
2022-08-04T08:16:43.854Z,100499.94
2022-08-04T08:19:10.409Z,100497.91
2022-08-04T08:21:58.384Z,100500.75
2022-08-04T08:24:24.089Z,100493.94
2022-08-04T08:26:50.578Z,100492.34
2022-08-04T08:29:17.285Z,100494.47
2022-08-04T08:31:57.581Z,100487.97
2022-08-04T08:34:28.787Z,100496.44
2022-08-04T08:37:02.962Z,100482.44
2022-08-04T08:39:38.637Z,100481.94
2022-08-04T08:42:45.312Z,100480.50
2022-08-04T08:45:41.814Z,100479.38
2022-08-04T08:48:39.938Z,100479.06
2022-08-04T08:51:26.001Z,100473.91
2022-08-04T08:54:10.475Z,100473.84
2022-08-04T08:56:59.821Z,100471.88
2022-08-04T08:59:47.168Z,100472.97
2022-08-04T09:02:38.363Z,100472.72
2022-08-04T09:05:34.256Z,100474.44
2022-08-04T09:08:28.307Z,100468.13
2022-08-04T09:11:01.209Z,100467.00
2022-08-04T09:13:36.845Z,100476.53
2022-08-04T09:16:21.151Z,100469.28
2022-08-04T09:18:47.589Z,100470.19
2022-08-04T09:21:33.585Z,100481.78
2022-08-04T09:24:35.149Z,100467.78
2022-08-04T09:27:15.351Z,100461.97
2022-08-04T09:29:52.085Z,100452.56
2022-08-04T09:32:43.787Z,100450.78
2022-08-04T09:35:33.200Z,100455.81
2022-08-04T09:38:20.673Z,100447.91
2022-08-04T09:41:02.029Z,100450.16
2022-08-04T09:44:50.632Z,100457.00
2022-08-04T09:47:08.894Z,100452.16
2022-08-04T09:49:47.380Z,100447.75
2022-08-04T09:53:03.027Z,100441.63
2022-08-04T09:55:53.960Z,100444.91
2022-08-04T09:58:43.345Z,100434.31
2022-08-04T10:01:14.538Z,100433.88
2022-08-04T10:03:49.683Z,100439.28
2022-08-04T10:06:19.071Z,100443.63
2022-08-04T10:08:57.109Z,100431.25
2022-08-04T10:11:55.606Z,100438.91
2022-08-04T10:14:37.021Z,100429.47
2022-08-04T10:17:31.513Z,100432.22
2022-08-04T10:20:34.033Z,100420.34
2022-08-04T10:23:55.906Z,100422.63
2022-08-04T10:26:26.988Z,100421.44
2022-08-04T10:29:09.407Z,100416.44
2022-08-04T10:31:46.262Z,100419.41
2022-08-04T10:34:18.916Z,100423.13
2022-08-04T10:36:56.024Z,100423.13
2022-08-04T10:39:43.184Z,100418.81
2022-08-04T10:42:10.476Z,100412.63
2022-08-04T10:44:57.637Z,100407.63
2022-08-04T10:47:31.873Z,100407.19
2022-08-04T10:50:01.375Z,100406.56
2022-08-04T10:52:45.903Z,100400.50
2022-08-04T10:55:23.065Z,100398.34
2022-08-04T10:58:16.368Z,100394.94
2022-08-04T11:00:45.583Z,100394.56
2022-08-04T11:03:33.004Z,100407.41
2022-08-04T11:05:59.458Z,100409.06
2022-08-04T11:08:44.349Z,100395.00
2022-08-04T11:11:20.819Z,100397.28
2022-08-04T11:14:12.556Z,100398.94
2022-08-04T11:16:55.502Z,100394.75
2022-08-04T11:19:43.118Z,100394.59
2022-08-04T11:22:23.170Z,100397.63
2022-08-04T11:25:01.116Z,100394.94
2022-08-04T11:27:49.498Z,100386.78
2022-08-04T11:30:19.002Z,100399.72
2022-08-04T11:33:02.954Z,100399.34
2022-08-04T11:35:35.212Z,100389.50
2022-08-04T11:38:32.358Z,100376.31
2022-08-04T11:41:07.605Z,100383.22
2022-08-04T11:44:01.235Z,100377.59
2022-08-04T11:46:47.296Z,100391.28
2022-08-04T11:49:27.966Z,100390.72
2022-08-04T11:51:58.768Z,100383.84
2022-08-04T11:54:25.092Z,100383.72
2022-08-04T11:56:51.784Z,100379.81
2022-08-04T11:59:22.401Z,100384.19
2022-08-04T12:02:19.129Z,100390.28
2022-08-04T12:04:58.275Z,100379.72
2022-08-04T12:07:44.832Z,100376.31
2022-08-04T12:10:42.709Z,100381.28
2022-08-04T12:13:48.866Z,100387.09
2022-08-04T12:16:22.201Z,100386.16
2022-08-04T12:19:21.482Z,100377.31
2022-08-04T12:21:56.786Z,100369.78
2022-08-04T12:24:52.876Z,100370.56
2022-08-04T12:27:30.881Z,100370.41
2022-08-04T12:31:00.655Z,100369.91
2022-08-04T12:32:59.120Z,100367.69
2022-08-04T12:35:33.614Z,100366.41
2022-08-04T12:38:04.924Z,100373.63
2022-08-04T12:40:39.506Z,100368.19
2022-08-04T12:43:18.670Z,100362.44
2022-08-04T12:45:49.998Z,100360.31
2022-08-04T12:48:21.325Z,100366.09
2022-08-04T12:50:50.659Z,100360.81
2022-08-04T12:53:31.523Z,100370.31
2022-08-04T12:56:01.851Z,100348.78
2022-08-04T12:58:43.029Z,100349.97
2022-08-04T13:02:07.069Z,100351.03
2022-08-04T13:04:24.510Z,100346.16
2022-08-04T13:07:07.572Z,100340.00
2022-08-04T13:09:34.581Z,100345.94
2022-08-04T13:12:05.528Z,100337.41
2022-08-04T13:14:35.760Z,100336.91
2022-08-04T13:17:02.164Z,100342.84
2022-08-04T13:19:30.003Z,100345.25
2022-08-04T13:22:02.566Z,100340.25
2022-08-04T13:27:21.858Z,100339.50
2022-08-04T13:30:00.715Z,100333.56
2022-08-04T13:30:25.378Z,100335.50
2022-08-04T13:32:30.876Z,100338.97
2022-08-04T13:35:00.732Z,100336.63
2022-08-04T13:37:34.319Z,100332.63
2022-08-04T13:40:06.746Z,100337.25
2022-08-04T13:42:35.712Z,100335.47
2022-08-04T13:45:04.231Z,100322.34
2022-08-04T13:47:34.229Z,100325.38
2022-08-04T13:50:12.536Z,100324.75
2022-08-04T13:52:40.811Z,100316.91
2022-08-04T13:55:08.173Z,100323.03
2022-08-04T13:57:44.268Z,100314.53
2022-08-04T14:00:11.806Z,100312.09
2022-08-04T14:02:48.875Z,100306.31
2022-08-04T14:05:18.505Z,100307.59
2022-08-04T14:07:50.566Z,100301.38
2022-08-04T14:10:17.273Z,100300.03
2022-08-04T14:12:49.071Z,100304.25
2022-08-04T14:16:01.133Z,100305.72
2022-08-04T14:18:29.584Z,100298.16
2022-08-04T14:21:14.834Z,100297.53
2022-08-04T14:23:52.989Z,100286.97
2022-08-04T14:26:33.311Z,100293.53
2022-08-04T14:29:28.685Z,100294.50
2022-08-04T14:32:05.536Z,100288.56
2022-08-04T14:34:41.267Z,100285.47
2022-08-04T14:37:16.367Z,100291.94
2022-08-04T14:40:08.358Z,100292.09
2022-08-04T14:42:55.212Z,100285.66
2022-08-04T14:45:31.909Z,100291.41
2022-08-04T14:47:59.110Z,100283.63
2022-08-04T14:50:37.480Z,100289.66
2022-08-04T14:53:14.323Z,100285.03
2022-08-04T14:55:46.705Z,100289.84
2022-08-04T14:58:34.088Z,100287.09
2022-08-04T15:01:10.250Z,100293.94
2022-08-04T15:03:51.012Z,100290.75
2022-08-04T15:06:25.771Z,100304.06
2022-08-04T15:08:53.484Z,100291.06
2022-08-04T15:11:22.691Z,100296.69
2022-08-04T15:13:51.668Z,100292.50
2022-08-04T15:16:18.841Z,100295.72
2022-08-04T15:18:49.652Z,100301.84
2022-08-04T15:21:17.231Z,100297.66
2022-08-04T15:23:43.589Z,100297.53
2022-08-04T15:26:15.125Z,100296.41
2022-08-04T15:28:48.939Z,100297.38
2022-08-04T15:32:07.624Z,100290.50
2022-08-04T15:34:04.081Z,100295.28
2022-08-04T15:36:57.725Z,100290.94
2022-08-04T15:39:38.244Z,100302.84
2022-08-04T15:42:18.860Z,100327.88
2022-08-04T15:45:06.421Z,100343.19
2022-08-04T15:47:32.984Z,100356.44
2022-08-04T15:50:11.402Z,100352.97
2022-08-04T15:52:57.219Z,100356.28
2022-08-04T15:55:38.986Z,100372.78
2022-08-04T15:58:07.885Z,100365.63
2022-08-04T16:00:49.965Z,100371.28
2022-08-04T16:03:58.530Z,100378.78
2022-08-04T16:06:20.701Z,100381.41
2022-08-04T16:08:57.225Z,100391.06
2022-08-04T16:11:31.443Z,100385.06
2022-08-04T16:13:58.429Z,100392.88
2022-08-04T16:16:37.698Z,100408.09
2022-08-04T16:19:09.412Z,100411.97
2022-08-04T16:21:53.136Z,100419.53
2022-08-04T16:24:22.138Z,100423.97
2022-08-04T16:27:00.175Z,100425.34
2022-08-04T16:29:31.084Z,100428.09
2022-08-04T16:32:06.636Z,100437.38
2022-08-04T16:34:48.531Z,100442.53
2022-08-04T16:37:18.032Z,100442.03
2022-08-04T16:39:51.063Z,100447.56
2022-08-04T16:42:30.255Z,100445.75
2022-08-04T16:45:12.259Z,100447.25
2022-08-04T16:47:47.426Z,100442.66
2022-08-04T16:50:17.763Z,100439.84
2022-08-04T16:52:45.756Z,100446.88
2022-08-04T16:55:15.053Z,100443.28
2022-08-04T16:57:41.620Z,100456.63
2022-08-04T17:00:08.848Z,100447.97
2022-08-04T17:02:36.070Z,100442.16
2022-08-04T17:05:07.718Z,100437.56
2022-08-04T17:08:19.771Z,100437.75
2022-08-04T17:10:43.036Z,100442.06
2022-08-04T17:14:03.840Z,100446.72
2022-08-04T17:16:13.733Z,100440.97
2022-08-04T17:18:49.987Z,100438.72
2022-08-04T17:21:20.464Z,100437.38
2022-08-04T17:24:14.805Z,100433.56
2022-08-04T17:26:54.953Z,100437.28
2022-08-04T17:29:23.141Z,100432.63
2022-08-04T17:32:13.672Z,100436.75
2022-08-04T17:34:40.147Z,100440.91
2022-08-04T17:37:36.405Z,100441.78
2022-08-04T17:39:52.930Z,100444.22
2022-08-04T17:42:30.131Z,100441.75
2022-08-04T17:48:06.883Z,100446.03
2022-08-04T17:50:33.322Z,100447.31
2022-08-04T17:53:11.525Z,100452.34
2022-08-04T17:55:44.415Z,100446.19
2022-08-04T18:03:56.050Z,100439.28
2022-08-04T18:06:22.597Z,100442.88
2022-08-04T18:08:57.423Z,100442.81
2022-08-04T18:11:29.589Z,100437.50
2022-08-04T18:14:07.887Z,100442.75
2022-08-04T18:16:45.301Z,100443.66
2022-08-04T18:19:18.992Z,100436.78
2022-08-04T18:21:59.682Z,100437.50
2022-08-04T18:27:23.234Z,100439.84
2022-08-04T18:30:15.091Z,100438.47
2022-08-04T18:32:37.395Z,100450.53
2022-08-04T18:35:18.055Z,100448.91
2022-08-04T18:38:06.679Z,100439.66
2022-08-04T18:40:40.617Z,100455.50
2022-08-04T18:43:17.528Z,100455.63
2022-08-04T18:45:55.222Z,100465.25
2022-08-04T18:48:22.197Z,100457.09
2022-08-04T18:51:23.201Z,100461.94
2022-08-04T18:53:54.997Z,100475.09
2022-08-04T18:56:29.882Z,100480.28
2022-08-04T18:59:04.297Z,100469.88
2022-08-04T19:02:13.700Z,100470.09
2022-08-04T19:07:25.137Z,100496.84
2022-08-04T19:09:53.905Z,100497.13
2022-08-04T19:12:26.290Z,100498.69
2022-08-04T19:14:58.283Z,100506.50
2022-08-04T19:17:53.926Z,100512.97
2022-08-04T19:20:24.554Z,100511.88
2022-08-04T19:24:29.164Z,100512.97
2022-08-04T19:25:58.477Z,100516.97
2022-08-04T19:28:29.709Z,100525.53
2022-08-04T19:30:57.719Z,100538.78
2022-08-04T19:33:25.209Z,100541.53
2022-08-04T19:35:52.375Z,100541.88
2022-08-04T19:38:18.856Z,100544.28
2022-08-04T19:40:50.530Z,100553.81
2022-08-04T19:43:19.492Z,100559.59
2022-08-04T19:45:45.997Z,100566.75
2022-08-04T19:48:18.715Z,100575.84
2022-08-04T19:50:45.841Z,100579.31
2022-08-04T19:53:19.307Z,100565.81
2022-08-04T19:55:49.804Z,100554.28
2022-08-04T19:58:17.575Z,100558.66
2022-08-04T20:00:44.633Z,100567.53
2022-08-04T20:03:20.315Z,100564.81
2022-08-04T20:05:53.907Z,100562.84
2022-08-04T20:08:21.060Z,100560.84
2022-08-04T20:10:51.761Z,100561.66
2022-08-04T20:13:19.333Z,100566.31
2022-08-04T20:15:55.455Z,100565.06
2022-08-04T20:18:36.434Z,100573.91
2022-08-04T20:21:22.714Z,100588.91
2022-08-04T20:23:58.433Z,100596.06
2022-08-04T20:26:44.741Z,100605.38
2022-08-04T20:29:39.006Z,100606.72
2022-08-04T20:32:08.769Z,100616.16
2022-08-04T20:34:36.312Z,100627.31
2022-08-04T20:37:03.252Z,100633.88
2022-08-04T20:39:30.845Z,100625.97
2022-08-04T20:41:57.918Z,100618.16
2022-08-04T20:44:24.509Z,100612.72
2022-08-04T20:46:51.157Z,100611.53
2022-08-04T20:49:17.746Z,100612.41
2022-08-04T20:51:44.170Z,100621.28
2022-08-04T20:54:16.333Z,100614.75
2022-08-04T20:56:50.577Z,100609.41
2022-08-04T20:59:19.230Z,100622.06
2022-08-04T21:01:49.436Z,100617.81
2022-08-04T21:04:27.319Z,100627.75
2022-08-04T21:06:55.412Z,100641.44
2022-08-04T21:09:36.847Z,100630.91
2022-08-04T21:12:06.539Z,100622.19
2022-08-04T21:14:33.850Z,100615.16
2022-08-04T21:17:02.605Z,100607.00
2022-08-04T21:19:30.178Z,100598.66
2022-08-04T21:21:58.079Z,100593.72
2022-08-04T21:24:26.425Z,100596.44
2022-08-04T21:29:41.301Z,100586.41
2022-08-04T21:32:08.101Z,100574.56
2022-08-04T21:34:39.403Z,100596.78
2022-08-04T21:37:07.027Z,100605.44
2022-08-04T21:39:51.051Z,100613.19
2022-08-04T21:42:29.769Z,100627.03
2022-08-04T21:44:57.625Z,100648.44
2022-08-04T21:47:24.110Z,100651.16
2022-08-04T21:49:56.230Z,100642.00
2022-08-04T21:52:23.454Z,100653.84
2022-08-04T21:54:54.258Z,100671.25
2022-08-04T21:57:22.790Z,100669.75
2022-08-04T21:59:52.017Z,100667.75
2022-08-04T22:02:18.542Z,100655.16
2022-08-04T22:04:45.069Z,100647.88
2022-08-04T22:07:12.061Z,100642.13
2022-08-04T22:10:00.374Z,100646.22
2022-08-04T22:12:30.124Z,100651.09
2022-08-04T22:14:59.544Z,100658.81
2022-08-04T22:17:34.973Z,100651.50
2022-08-04T22:20:02.528Z,100651.13
2022-08-04T22:22:30.028Z,100654.31
2022-08-04T22:25:01.689Z,100649.84
2022-08-04T22:27:28.569Z,100643.81
2022-08-04T22:29:56.381Z,100630.81
2022-08-04T22:32:22.971Z,100635.19
2022-08-04T22:34:53.340Z,100637.72
2022-08-04T22:37:19.936Z,100639.25
2022-08-04T22:39:56.242Z,100640.16
2022-08-04T22:42:23.333Z,100632.84
2022-08-04T22:44:49.698Z,100614.59
2022-08-04T22:47:20.089Z,100620.25
2022-08-04T22:49:56.453Z,100614.16
2022-08-04T22:52:34.013Z,100602.41
2022-08-04T22:55:00.531Z,100602.03
2022-08-04T22:57:43.558Z,100624.94
2022-08-04T23:00:14.080Z,100642.59
2022-08-04T23:02:40.399Z,100643.38
2022-08-04T23:05:07.050Z,100623.91
2022-08-04T23:07:47.313Z,100603.56
2022-08-04T23:10:15.877Z,100594.72
2022-08-04T23:12:42.962Z,100606.06
2022-08-04T23:15:09.732Z,100611.28
2022-08-04T23:17:44.004Z,100603.22
2022-08-04T23:20:23.624Z,100604.75
2022-08-04T23:23:00.283Z,100611.25
2022-08-04T23:26:07.173Z,100612.00
2022-08-04T23:28:30.350Z,100612.84
2022-08-04T23:30:56.954Z,100610.09
2022-08-04T23:33:23.375Z,100609.16
2022-08-04T23:35:49.721Z,100612.53
2022-08-04T23:38:31.452Z,100619.34
2022-08-04T23:41:09.109Z,100611.56
2022-08-04T23:43:55.078Z,100610.41
2022-08-04T23:46:22.431Z,100615.63
2022-08-04T23:48:48.814Z,100614.88
2022-08-04T23:51:15.649Z,100626.53
2022-08-04T23:54:02.427Z,100645.81
2022-08-04T23:56:32.037Z,100645.97
2022-08-04T23:59:00.034Z,100648.19
